Time;durP1;ratioP1;P1;durP2;ratioP2;P2;SDS_P1;SDS_P2;PMS_P1;PMS_P2;Temp;Humidity;BMP_temperature;BMP_pressure;BME280_temperature;BME280_humidity;BME280_pressure;Samples;Min_cycle;Max_cycle;Signal;HPM_P1;HPM_P2
2022/05/01 04:00:27;;;;;;;51.92;32.67;;;9.50;99.90;;;;;;6063759;22;20002;-77
2022/05/01 04:02:53;;;;;;;51.70;32.90;;;9.60;99.90;;;;;;5054234;28;20569;-76
2022/05/01 04:05:19;;;;;;;54.63;33.60;;;9.60;99.90;;;;;;5053360;28;20038;-77
2022/05/01 04:07:44;;;;;;;56.00;33.78;;;9.50;99.90;;;;;;5055278;28;20038;-77
2022/05/01 04:10:11;;;;;;;55.92;33.10;;;9.50;99.90;;;;;;5054779;28;20112;-77
2022/05/01 04:12:42;;;;;;;57.10;34.15;;;9.60;99.90;;;;;;5053674;28;20033;-77
2022/05/01 04:15:09;;;;;;;57.03;34.05;;;9.60;99.90;;;;;;5053770;28;20025;-75
2022/05/01 04:17:41;;;;;;;56.50;35.33;;;9.60;99.90;;;;;;5055107;28;20033;-76
2022/05/01 04:20:15;;;;;;;59.50;35.65;;;9.60;99.90;;;;;;5053521;28;20040;-75
2022/05/01 04:22:46;;;;;;;53.67;33.38;;;9.60;99.90;;;;;;5054737;28;20087;-76
2022/05/01 04:25:20;;;;;;;53.47;34.65;;;9.60;99.90;;;;;;5054413;28;20537;-75
2022/05/01 04:27:47;;;;;;;51.58;33.10;;;9.60;99.90;;;;;;5054920;28;20026;-76
2022/05/01 04:30:14;;;;;;;54.85;34.40;;;9.60;99.90;;;;;;5052927;28;20040;-76
2022/05/01 04:32:50;;;;;;;54.17;33.42;;;9.60;99.90;;;;;;5054806;28;20033;-75
2022/05/01 04:35:31;;;;;;;55.17;33.97;;;9.60;99.90;;;;;;5054780;28;20034;-76
2022/05/01 04:38:01;;;;;;;52.13;33.38;;;9.60;99.90;;;;;;5053076;28;20476;-75
2022/05/01 04:40:40;;;;;;;52.72;35.00;;;9.60;99.90;;;;;;5054130;28;20496;-75
2022/05/01 04:43:14;;;;;;;53.95;34.10;;;9.70;99.90;;;;;;5054602;28;20589;-76
2022/05/01 04:45:41;;;;;;;54.58;34.88;;;9.70;99.90;;;;;;5054502;28;20041;-76
2022/05/01 04:48:08;;;;;;;53.60;33.95;;;9.70;99.90;;;;;;5054635;28;20121;-75
2022/05/01 04:50:35;;;;;;;54.40;33.95;;;9.70;99.90;;;;;;5054032;28;20481;-76
2022/05/01 04:53:02;;;;;;;52.22;33.95;;;9.80;99.90;;;;;;5054336;28;20036;-78
2022/05/01 04:55:30;;;;;;;55.45;34.95;;;9.80;99.90;;;;;;5054560;28;20040;-75
2022/05/01 04:57:57;;;;;;;57.20;35.13;;;9.80;99.90;;;;;;5054563;28;20064;-75
2022/05/01 05:00:22;;;;;;;52.90;34.60;;;9.80;99.90;;;;;;5054128;28;20033;-76
2022/05/01 05:02:50;;;;;;;50.42;32.13;;;9.90;99.90;;;;;;5054408;28;20041;-75
2022/05/01 05:05:17;;;;;;;53.63;33.35;;;9.90;99.90;;;;;;5052720;28;20036;-76
2022/05/01 05:07:43;;;;;;;52.42;33.90;;;9.90;99.90;;;;;;5054591;28;20056;-75
2022/05/01 05:10:10;;;;;;;53.97;34.78;;;10.00;99.90;;;;;;5054393;28;20041;-75
2022/05/01 05:12:37;;;;;;;52.15;32.90;;;10.00;99.90;;;;;;5052783;28;20498;-76
2022/05/01 05:15:07;;;;;;;51.33;32.55;;;10.10;99.90;;;;;;5054436;28;20470;-76
2022/05/01 05:17:33;;;;;;;51.42;32.95;;;10.10;99.90;;;;;;5057420;28;20037;-76
2022/05/01 05:19:59;;;;;;;46.55;32.58;;;10.10;99.90;;;;;;5057804;28;20450;-77
2022/05/01 05:22:24;;;;;;;50.88;32.55;;;10.20;99.90;;;;;;5056219;28;20077;-76
2022/05/01 05:24:50;;;;;;;50.90;32.67;;;10.30;99.90;;;;;;5056079;28;20598;-75
2022/05/01 05:27:17;;;;;;;51.50;32.55;;;10.30;99.90;;;;;;5057854;28;20033;-76
2022/05/01 05:29:43;;;;;;;46.28;30.85;;;10.40;99.90;;;;;;5057790;28;20390;-76
2022/05/01 05:32:08;;;;;;;45.13;31.23;;;10.40;99.90;;;;;;5056904;28;20037;-76
2022/05/01 05:34:34;;;;;;;46.28;31.27;;;10.50;99.90;;;;;;5057388;28;20036;-76
2022/05/01 05:36:59;;;;;;;45.42;30.92;;;10.60;99.90;;;;;;5057531;28;20029;-76
2022/05/01 05:39:25;;;;;;;44.40;30.77;;;10.60;99.90;;;;;;5055816;28;20044;-76
2022/05/01 05:41:51;;;;;;;44.22;30.75;;;10.70;99.90;;;;;;5057128;28;20049;-76
2022/05/01 05:44:16;;;;;;;42.42;30.48;;;10.70;99.90;;;;;;5057123;28;20040;-77
2022/05/01 05:46:42;;;;;;;48.15;30.23;;;10.80;99.90;;;;;;5057377;28;20097;-78
2022/05/01 05:49:08;;;;;;;44.30;29.10;;;10.90;99.90;;;;;;5057165;28;20054;-77
2022/05/01 05:51:33;;;;;;;41.03;29.52;;;10.90;99.90;;;;;;5057045;28;20379;-77
2022/05/01 05:53:59;;;;;;;39.15;27.52;;;11.00;99.90;;;;;;5056923;28;20037;-77
2022/05/01 05:56:24;;;;;;;40.58;27.63;;;11.00;99.90;;;;;;5057466;28;20096;-76
2022/05/01 05:58:50;;;;;;;43.33;28.58;;;11.20;99.90;;;;;;5057156;28;20494;-77
2022/05/01 06:01:16;;;;;;;41.88;28.45;;;11.40;99.90;;;;;;5056777;28;20037;-77
2022/05/01 06:03:42;;;;;;;41.80;28.52;;;11.50;99.90;;;;;;5056758;28;20045;-77
2022/05/01 06:06:08;;;;;;;41.92;28.85;;;11.60;99.90;;;;;;5056852;28;20029;-77
2022/05/01 06:08:38;;;;;;;44.45;29.70;;;11.60;99.90;;;;;;5056748;28;20549;-78
2022/05/01 06:11:04;;;;;;;42.03;28.13;;;11.60;99.90;;;;;;5056606;28;20080;-77
2022/05/01 06:13:30;;;;;;;41.63;29.38;;;11.60;99.90;;;;;;5056737;28;20045;-79
2022/05/01 06:15:56;;;;;;;40.97;29.00;;;11.60;99.90;;;;;;5053617;28;20399;-78
2022/05/01 06:18:21;;;;;;;42.72;28.70;;;11.70;99.90;;;;;;5037974;28;20427;-79
2022/05/01 06:20:47;;;;;;;42.00;30.23;;;11.80;99.90;;;;;;5038520;28;20036;-79
2022/05/01 06:23:13;;;;;;;49.33;29.92;;;11.80;99.90;;;;;;5054860;28;20037;-78
2022/05/01 06:25:43;;;;;;;40.70;28.83;;;11.80;99.90;;;;;;5057269;28;20026;-79
2022/05/01 06:28:11;;;;;;;37.00;27.88;;;11.90;99.90;;;;;;5057183;28;20034;-77
2022/05/01 06:30:43;;;;;;;39.65;27.95;;;11.90;99.90;;;;;;5054808;28;20384;-81
2022/05/01 06:33:10;;;;;;;39.85;28.67;;;12.10;99.90;;;;;;5056534;28;20041;-77
2022/05/01 06:35:36;;;;;;;40.70;28.55;;;12.00;99.90;;;;;;5054733;28;20036;-82
2022/05/01 06:38:02;;;;;;;40.83;28.70;;;12.00;99.90;;;;;;5058517;28;20037;-80
2022/05/01 06:40:28;;;;;;;43.08;28.75;;;12.00;99.90;;;;;;5057840;28;20034;-80
2022/05/01 06:42:54;;;;;;;42.97;30.15;;;11.80;99.90;;;;;;5057357;28;20041;-78
2022/05/01 06:45:20;;;;;;;39.10;27.13;;;11.80;99.90;;;;;;5062599;28;20491;-79
2022/05/01 06:47:45;;;;;;;41.00;29.20;;;11.90;99.90;;;;;;5057444;28;20041;-82
2022/05/01 06:50:11;;;;;;;44.00;28.83;;;11.90;99.90;;;;;;5059624;28;20065;-83
2022/05/01 06:52:41;;;;;;;41.08;28.10;;;12.10;99.90;;;;;;5059983;28;20045;-82
2022/05/01 06:55:10;;;;;;;39.38;28.30;;;12.00;99.90;;;;;;5063102;28;20033;-80
2022/05/01 06:57:35;;;;;;;41.53;29.13;;;12.00;99.90;;;;;;5059425;28;20022;-84
2022/05/01 07:00:01;;;;;;;39.05;27.38;;;12.10;99.90;;;;;;5059047;28;20021;-84
2022/05/01 07:02:26;;;;;;;37.58;28.45;;;12.10;99.90;;;;;;5058355;28;20041;-84
2022/05/01 07:04:52;;;;;;;38.35;27.42;;;12.10;99.90;;;;;;5055946;28;20053;-82
2022/05/01 07:07:18;;;;;;;39.72;28.52;;;12.00;99.90;;;;;;5059416;28;20045;-82
2022/05/01 07:09:43;;;;;;;37.83;27.38;;;12.10;99.90;;;;;;5058186;28;20026;-77
2022/05/01 07:12:11;;;;;;;42.92;28.83;;;12.20;99.90;;;;;;5059801;28;20037;-81
2022/05/01 07:14:40;;;;;;;41.15;28.83;;;12.30;99.90;;;;;;5057757;28;20021;-82
2022/05/01 07:17:05;;;;;;;36.70;26.83;;;12.30;99.90;;;;;;5057210;28;20061;-79
2022/05/01 07:19:31;;;;;;;37.53;26.70;;;12.20;99.90;;;;;;5056625;28;20161;-79
2022/05/01 07:21:57;;;;;;;37.53;27.85;;;12.30;99.90;;;;;;5056962;28;20044;-81
2022/05/01 07:24:23;;;;;;;39.70;27.27;;;12.50;99.90;;;;;;5057368;28;20042;-81
2022/05/01 07:26:48;;;;;;;34.75;24.65;;;12.70;99.90;;;;;;5057151;28;20087;-79
2022/05/01 07:29:14;;;;;;;37.88;25.48;;;12.80;99.90;;;;;;5057444;28;20037;-82
2022/05/01 07:31:42;;;;;;;33.95;24.92;;;12.90;99.90;;;;;;5057178;28;20099;-79
2022/05/01 07:34:08;;;;;;;37.40;25.83;;;12.90;99.90;;;;;;5056785;28;20025;-81
2022/05/01 07:36:34;;;;;;;32.58;24.27;;;13.00;99.90;;;;;;5055773;28;20380;-78
2022/05/01 07:39:02;;;;;;;33.25;25.35;;;13.10;99.90;;;;;;5055519;28;20049;-79
2022/05/01 07:41:28;;;;;;;36.63;25.00;;;13.20;99.90;;;;;;5057732;28;20499;-79
2022/05/01 07:43:55;;;;;;;34.38;25.08;;;13.30;99.90;;;;;;5057185;28;20029;-79
2022/05/01 07:46:21;;;;;;;34.85;24.92;;;13.40;99.90;;;;;;5057463;28;20041;-78
2022/05/01 07:48:47;;;;;;;33.05;24.25;;;13.50;99.90;;;;;;5059178;28;20030;-78
2022/05/01 07:51:14;;;;;;;35.10;25.10;;;13.60;99.90;;;;;;5058642;28;20057;-77
2022/05/01 07:53:40;;;;;;;32.03;24.95;;;13.90;99.90;;;;;;5058561;28;20041;-79
2022/05/01 07:56:05;;;;;;;35.33;26.25;;;14.20;99.90;;;;;;5057910;28;20038;-78
2022/05/01 07:58:31;;;;;;;34.00;24.58;;;14.30;99.90;;;;;;5057844;28;20037;-77
2022/05/01 08:00:59;;;;;;;34.42;24.45;;;14.30;99.90;;;;;;5055506;28;20032;-77
2022/05/01 08:06:10;;;;;;;32.20;23.70;;;14.70;99.90;;;;;;5056596;28;20073;-78
2022/05/01 08:08:36;;;;;;;32.75;24.02;;;15.30;99.90;;;;;;5055527;28;20411;-78
2022/05/01 08:11:03;;;;;;;30.52;21.58;;;15.40;99.90;;;;;;5055379;28;20030;-77
2022/05/01 08:13:29;;;;;;;29.63;21.20;;;15.80;99.90;;;;;;5055598;28;20116;-78
2022/05/01 08:15:55;;;;;;;28.73;21.92;;;15.40;99.90;;;;;;5054239;28;20091;-80
2022/05/01 08:21:05;;;;;;;26.90;19.90;;;14.80;99.90;;;;;;5055664;28;20034;-76
2022/05/01 08:23:34;;;;;;;26.25;20.88;;;14.80;99.90;;;;;;5055198;28;20034;-77
2022/05/01 08:26:03;;;;;;;27.88;20.95;;;14.60;99.90;;;;;;5055690;28;20098;-77
2022/05/01 08:28:34;;;;;;;28.15;20.88;;;14.80;99.90;;;;;;5057656;28;20037;-77
2022/05/01 08:31:01;;;;;;;26.70;20.75;;;14.90;99.90;;;;;;5055461;28;20037;-77
2022/05/01 08:33:27;;;;;;;24.83;20.92;;;14.70;99.90;;;;;;5055247;28;20033;-77
2022/05/01 08:35:53;;;;;;;28.48;21.20;;;14.80;99.90;;;;;;5058404;28;20029;-78
2022/05/01 08:38:20;;;;;;;25.52;19.50;;;15.00;99.90;;;;;;5059034;28;20041;-78
2022/05/01 08:40:48;;;;;;;25.85;18.80;;;15.30;99.90;;;;;;5058458;28;20029;-78
2022/05/01 08:43:21;;;;;;;24.08;18.25;;;15.50;99.90;;;;;;5055122;28;20069;-77
2022/05/01 08:46:24;;;;;;;21.60;17.65;;;15.50;99.90;;;;;;5055773;28;20486;-77
2022/05/01 08:49:17;;;;;;;21.50;18.02;;;15.60;99.90;;;;;;5065286;28;20006;-77
2022/05/01 08:51:43;;;;;;;22.45;17.35;;;15.70;99.90;;;;;;5056505;28;20026;-77
2022/05/01 08:54:12;;;;;;;27.10;18.77;;;15.70;99.90;;;;;;5056226;28;20033;-78
2022/05/01 08:56:41;;;;;;;24.38;18.08;;;15.80;99.90;;;;;;5064090;28;20025;-78
2022/05/01 08:59:12;;;;;;;22.00;18.40;;;15.90;99.90;;;;;;5059565;28;20038;-75
2022/05/01 09:01:39;;;;;;;23.92;17.17;;;15.70;99.90;;;;;;5053891;28;20033;-76
2022/05/01 09:04:06;;;;;;;23.92;17.92;;;15.80;99.90;;;;;;5054012;28;20042;-75
2022/05/01 09:06:35;;;;;;;21.48;16.65;;;15.70;99.90;;;;;;5054590;28;20173;-77
2022/05/01 09:09:11;;;;;;;24.90;18.05;;;15.80;99.90;;;;;;5054253;28;20525;-76
2022/05/01 09:14:27;;;;;;;23.63;18.50;;;15.50;99.90;;;;;;5052098;28;20037;-75
2022/05/01 09:17:20;;;;;;;22.58;17.77;;;15.20;99.90;;;;;;5052563;28;20525;-75
2022/05/01 09:19:49;;;;;;;22.02;18.35;;;15.20;99.90;;;;;;5054334;28;20037;-76
2022/05/01 09:22:18;;;;;;;22.42;17.45;;;15.40;99.90;;;;;;5053869;28;20068;-76
2022/05/01 09:24:53;;;;;;;22.63;18.73;;;15.20;99.90;;;;;;5053898;28;20061;-77
2022/05/01 09:27:32;;;;;;;22.20;17.35;;;15.00;99.90;;;;;;5054685;28;20037;-77
2022/05/01 09:30:31;;;;;;;22.05;17.60;;;14.80;99.90;;;;;;5053755;28;20045;-76
2022/05/01 09:32:58;;;;;;;21.55;16.40;;;15.10;99.90;;;;;;5048463;28;20113;-76
2022/05/01 09:35:35;;;;;;;19.50;15.77;;;15.20;99.90;;;;;;5053848;28;20091;-75
2022/05/01 09:38:21;;;;;;;20.00;15.50;;;15.40;99.90;;;;;;5053955;28;20034;-77
2022/05/01 09:40:54;;;;;;;19.45;16.35;;;15.70;99.90;;;;;;5053200;28;20034;-75
2022/05/01 09:43:41;;;;;;;23.40;17.88;;;15.90;99.90;;;;;;5053499;28;20542;-76
2022/05/01 09:46:29;;;;;;;21.17;17.00;;;15.60;99.90;;;;;;5053896;28;20030;-75
2022/05/01 09:49:04;;;;;;;21.00;16.63;;;15.70;99.90;;;;;;5053479;28;20037;-75
2022/05/01 09:52:02;;;;;;;19.98;17.20;;;15.70;99.90;;;;;;5052200;28;20022;-76
2022/05/01 09:54:28;;;;;;;20.58;16.80;;;15.70;99.90;;;;;;5040806;28;20124;-77
2022/05/01 09:56:54;;;;;;;19.83;15.00;;;15.70;99.90;;;;;;5052081;28;20586;-75
2022/05/01 09:59:23;;;;;;;20.95;16.98;;;15.70;99.90;;;;;;5053894;28;20034;-74
2022/05/01 10:02:02;;;;;;;20.13;16.42;;;15.60;99.90;;;;;;5054140;28;20038;-76
2022/05/01 10:04:29;;;;;;;20.95;16.30;;;15.60;99.90;;;;;;5055246;28;20117;-76
2022/05/01 10:06:56;;;;;;;18.42;15.55;;;15.70;99.90;;;;;;5056815;28;20508;-78
2022/05/01 10:09:27;;;;;;;20.58;16.35;;;15.70;99.90;;;;;;5055526;28;20041;-75
2022/05/01 10:11:58;;;;;;;20.00;15.85;;;15.50;99.90;;;;;;5056330;28;20034;-75
2022/05/01 10:14:28;;;;;;;24.75;17.20;;;15.50;99.90;;;;;;5056944;28;20033;-78
2022/05/01 10:16:54;;;;;;;19.48;15.40;;;15.40;99.90;;;;;;5055179;28;20566;-76
2022/05/01 10:19:20;;;;;;;21.23;15.90;;;15.40;99.90;;;;;;5056850;28;20084;-77
2022/05/01 10:21:49;;;;;;;22.73;16.58;;;15.40;99.90;;;;;;5054958;28;20041;-77
2022/05/01 10:24:18;;;;;;;21.63;16.15;;;15.30;99.90;;;;;;5056162;28;20040;-76
2022/05/01 10:27:16;;;;;;;19.30;15.85;;;15.70;99.90;;;;;;5054900;28;20036;-75
2022/05/01 10:33:29;;;;;;;19.60;15.65;;;16.20;99.90;;;;;;5056073;28;20037;-77
2022/05/01 10:36:09;;;;;;;19.77;15.68;;;16.70;99.90;;;;;;5043883;28;20052;-76
2022/05/01 10:39:02;;;;;;;18.33;15.93;;;16.80;99.90;;;;;;5056387;28;20036;-77
2022/05/01 10:41:29;;;;;;;19.63;15.52;;;16.40;99.90;;;;;;5056478;28;20033;-76
2022/05/01 10:43:56;;;;;;;18.20;14.75;;;16.90;99.90;;;;;;5056056;28;20034;-77
2022/05/01 10:46:22;;;;;;;18.20;14.73;;;17.30;99.90;;;;;;5054695;28;20124;-76
2022/05/01 10:48:48;;;;;;;18.83;15.40;;;17.50;99.90;;;;;;5055844;28;20466;-76
2022/05/01 10:51:30;;;;;;;17.55;14.98;;;17.10;99.90;;;;;;5056265;28;20869;-77
2022/05/01 10:54:13;;;;;;;18.65;15.05;;;17.30;99.90;;;;;;5054314;28;20033;-77
2022/05/01 10:56:43;;;;;;;18.48;14.60;;;17.30;99.90;;;;;;5056381;28;20105;-77
2022/05/01 10:59:39;;;;;;;20.77;15.77;;;17.10;99.90;;;;;;5054683;28;20120;-76
2022/05/01 11:02:16;;;;;;;18.35;15.32;;;16.90;99.90;;;;;;5055279;28;20061;-76
2022/05/01 11:04:42;;;;;;;18.23;15.25;;;16.70;99.90;;;;;;5053750;28;20034;-77
2022/05/01 11:07:17;;;;;;;19.27;16.15;;;16.40;99.90;;;;;;5054761;28;20029;-76
2022/05/01 11:09:47;;;;;;;21.10;15.68;;;16.20;99.90;;;;;;5056370;28;20108;-77
2022/05/01 11:12:15;;;;;;;19.15;15.85;;;16.20;99.90;;;;;;5055680;28;20447;-76
2022/05/01 11:14:51;;;;;;;18.55;15.13;;;16.20;99.90;;;;;;5055490;28;20042;-75
2022/05/01 11:17:28;;;;;;;20.63;14.55;;;16.60;99.90;;;;;;5055970;28;20491;-76
2022/05/01 11:20:02;;;;;;;17.05;15.13;;;16.90;99.90;;;;;;5054503;28;20510;-77
2022/05/01 11:22:28;;;;;;;20.08;14.55;;;17.00;99.90;;;;;;5055758;28;20041;-77
2022/05/01 11:24:54;;;;;;;17.15;14.18;;;17.10;99.90;;;;;;5053785;28;20029;-77
2022/05/01 11:27:23;;;;;;;16.70;13.57;;;17.20;99.70;;;;;;5055475;28;20049;-76
2022/05/01 11:30:07;;;;;;;18.33;14.32;;;17.00;99.40;;;;;;5055476;28;20030;-76
2022/05/01 11:32:58;;;;;;;17.42;14.27;;;16.70;99.90;;;;;;5055317;28;20037;-76
2022/05/01 11:35:56;;;;;;;17.08;13.45;;;16.20;99.90;;;;;;5055395;28;20108;-77
2022/05/01 11:38:23;;;;;;;17.15;13.48;;;16.00;99.90;;;;;;5055739;28;20029;-75
2022/05/01 11:41:00;;;;;;;16.05;14.35;;;16.10;99.90;;;;;;5055778;28;20091;-78
2022/05/01 11:43:28;;;;;;;15.25;13.60;;;16.90;99.90;;;;;;5055663;28;20044;-77
2022/05/01 11:45:55;;;;;;;18.98;14.10;;;17.40;98.40;;;;;;5055627;28;20632;-76
2022/05/01 11:48:24;;;;;;;16.05;13.20;;;17.80;98.50;;;;;;5056050;28;20053;-77
2022/05/01 11:50:52;;;;;;;17.23;13.13;;;18.50;97.70;;;;;;5055150;28;20021;-76
2022/05/01 11:53:27;;;;;;;15.45;13.60;;;19.10;97.60;;;;;;5055360;28;20128;-78
2022/05/01 12:04:31;;;;;;;15.27;12.60;;;18.80;96.60;;;;;;5055016;28;20041;-76
2022/05/01 12:07:12;;;;;;;14.65;12.05;;;18.70;94.70;;;;;;5055879;28;20030;-76
2022/05/01 12:09:39;;;;;;;14.60;12.23;;;18.80;95.10;;;;;;5055873;28;20157;-77
2022/05/01 12:12:13;;;;;;;13.30;11.65;;;18.80;94.60;;;;;;5055590;28;20073;-78
2022/05/01 12:14:40;;;;;;;13.98;12.43;;;18.50;96.80;;;;;;5055420;28;20129;-76
2022/05/01 12:17:07;;;;;;;14.48;11.45;;;18.70;95.70;;;;;;5056800;28;20026;-77
2022/05/01 12:19:37;;;;;;;13.00;11.50;;;18.40;95.50;;;;;;5057170;28;20040;-78
2022/05/01 12:22:04;;;;;;;11.73;10.52;;;18.20;95.90;;;;;;5056474;28;20045;-77
2022/05/01 12:24:30;;;;;;;14.93;10.48;;;18.40;94.30;;;;;;5057062;28;20060;-77
2022/05/01 12:26:56;;;;;;;12.52;10.30;;;18.60;95.00;;;;;;5059882;28;20029;-79
2022/05/01 12:29:23;;;;;;;12.02;10.73;;;18.80;93.70;;;;;;5059791;28;20534;-78
2022/05/01 12:32:03;;;;;;;13.02;10.60;;;18.70;94.00;;;;;;5057189;28;20036;-78
2022/05/01 12:34:38;;;;;;;13.20;11.13;;;18.50;96.20;;;;;;5057230;28;20465;-77
2022/05/01 12:37:18;;;;;;;15.73;10.90;;;18.60;94.10;;;;;;5055712;28;20047;-78
2022/05/01 12:39:55;;;;;;;13.13;11.18;;;18.10;93.70;;;;;;5056961;28;20511;-78
2022/05/01 12:45:09;;;;;;;13.30;11.45;;;19.20;93.80;;;;;;5057783;28;20057;-79
2022/05/01 12:47:38;;;;;;;12.02;10.23;;;19.90;91.50;;;;;;5056567;28;20438;-78
2022/05/01 12:50:10;;;;;;;11.73;9.85;;;20.30;92.40;;;;;;5056759;28;20119;-78
2022/05/01 12:52:37;;;;;;;11.60;10.18;;;20.00;91.70;;;;;;5055465;28;20096;-77
2022/05/01 12:55:07;;;;;;;12.15;10.30;;;19.70;93.00;;;;;;5056947;28;20065;-78
2022/05/01 12:57:36;;;;;;;12.13;10.20;;;19.50;92.10;;;;;;5058045;28;20033;-78
2022/05/01 13:00:05;;;;;;;13.48;10.25;;;19.60;95.10;;;;;;5058375;28;20061;-78
2022/05/01 13:02:31;;;;;;;11.55;10.27;;;20.20;91.20;;;;;;5057777;28;20136;-79
2022/05/01 13:04:58;;;;;;;11.07;9.98;;;20.10;90.70;;;;;;5058904;28;20034;-79
2022/05/01 13:07:36;;;;;;;11.18;10.05;;;20.40;91.00;;;;;;5057582;28;20070;-79
2022/05/01 13:10:03;;;;;;;12.60;10.50;;;20.30;91.00;;;;;;5056008;28;20040;-79
2022/05/01 13:12:31;;;;;;;13.23;10.63;;;20.10;90.50;;;;;;5058310;28;20044;-79
2022/05/01 13:14:58;;;;;;;11.82;9.90;;;19.80;91.60;;;;;;5056982;28;20025;-78
2022/05/01 13:17:27;;;;;;;12.45;11.15;;;19.60;92.20;;;;;;5057669;28;20030;-79
2022/05/01 13:19:53;;;;;;;15.75;10.45;;;19.80;90.10;;;;;;5058809;28;20026;-79
2022/05/01 13:22:19;;;;;;;12.57;10.57;;;19.60;91.60;;;;;;5060220;28;20038;-80
2022/05/01 13:24:46;;;;;;;11.23;10.10;;;19.70;90.00;;;;;;5064814;28;20467;-79
2022/05/01 13:27:12;;;;;;;12.50;10.57;;;19.30;91.10;;;;;;5059250;28;20069;-78
2022/05/01 13:29:40;;;;;;;12.82;10.57;;;19.10;93.50;;;;;;5058254;28;20030;-78
2022/05/01 13:32:08;;;;;;;12.18;10.55;;;19.00;92.40;;;;;;5056793;28;20036;-79
2022/05/01 13:34:39;;;;;;;12.05;10.13;;;19.00;93.00;;;;;;5055063;28;20038;-81
2022/05/01 13:37:06;;;;;;;14.50;9.90;;;19.50;90.90;;;;;;5058768;28;20084;-78
2022/05/01 13:45:00;;;;;;;10.63;9.40;;;22.40;84.10;;;;;;5060038;28;20029;-80
2022/05/01 13:47:26;;;;;;;12.02;9.18;;;22.20;82.80;;;;;;5060451;28;20033;-79
2022/05/01 13:49:54;;;;;;;11.95;10.32;;;21.70;82.20;;;;;;5060866;28;20441;-78
2022/05/01 13:52:19;;;;;;;12.00;10.18;;;21.10;84.50;;;;;;5058457;28;20096;-78
2022/05/01 13:54:46;;;;;;;14.65;11.38;;;20.70;86.10;;;;;;5058348;28;20033;-79
2022/05/01 13:57:12;;;;;;;13.63;10.60;;;20.80;86.80;;;;;;5060452;28;20063;-79
2022/05/01 13:59:37;;;;;;;11.15;10.00;;;20.60;86.40;;;;;;5060259;28;20064;-78
2022/05/01 14:02:04;;;;;;;12.90;11.13;;;20.00;88.30;;;;;;5058698;28;20048;-79
2022/05/01 14:04:30;;;;;;;11.05;9.40;;;19.70;90.10;;;;;;5058976;28;21120;-79
2022/05/01 14:06:56;;;;;;;11.35;10.15;;;19.90;85.80;;;;;;5058053;28;20033;-77
2022/05/01 14:09:23;;;;;;;12.57;9.70;;;19.50;86.70;;;;;;5058371;28;20063;-77
2022/05/01 14:11:54;;;;;;;12.55;9.93;;;19.40;88.10;;;;;;5057614;28;20095;-77
2022/05/01 14:14:20;;;;;;;11.65;9.93;;;19.90;85.50;;;;;;5056207;28;20045;-77
2022/05/01 14:16:46;;;;;;;11.68;9.65;;;20.00;90.60;;;;;;5058619;28;20029;-78
2022/05/01 14:19:27;;;;;;;10.85;9.75;;;20.20;88.90;;;;;;5057282;28;20561;-78
2022/05/01 14:21:57;;;;;;;11.65;9.75;;;21.00;85.80;;;;;;5060336;28;20042;-80
2022/05/01 14:24:23;;;;;;;12.20;8.85;;;21.70;83.00;;;;;;5060068;28;20465;-78
2022/05/01 14:26:49;;;;;;;11.40;9.32;;;22.70;82.40;;;;;;5060779;28;20085;-79
2022/05/01 14:29:15;;;;;;;11.07;9.52;;;23.40;78.70;;;;;;5060651;28;20128;-79
2022/05/01 14:31:55;;;;;;;10.20;9.25;;;23.80;75.50;;;;;;5060786;28;20900;-78
2022/05/01 14:34:46;;;;;;;11.52;9.10;;;24.90;75.00;;;;;;5059861;28;20061;-79
2022/05/01 14:37:20;;;;;;;11.27;8.77;;;25.90;71.30;;;;;;5055850;28;20073;-78
2022/05/01 14:39:47;;;;;;;9.82;8.82;;;27.10;67.40;;;;;;5060136;28;20030;-78
2022/05/01 14:42:30;;;;;;;9.43;8.55;;;27.20;64.00;;;;;;5059824;28;20060;-78
2022/05/01 14:45:02;;;;;;;9.10;8.20;;;27.60;65.30;;;;;;5059500;28;20494;-78
2022/05/01 14:47:34;;;;;;;10.02;9.02;;;27.50;65.60;;;;;;5060341;28;20080;-78
2022/05/01 14:50:03;;;;;;;10.07;9.05;;;27.30;61.70;;;;;;5061074;28;20060;-79
2022/05/01 14:52:30;;;;;;;10.13;9.18;;;25.60;63.00;;;;;;5060200;28;20098;-79
2022/05/01 14:54:58;;;;;;;10.30;9.30;;;24.10;64.90;;;;;;5065090;28;20034;-78
2022/05/01 14:57:26;;;;;;;10.63;9.52;;;22.90;69.60;;;;;;5060322;28;20572;-79
2022/05/01 15:08:22;;;;;;;11.48;9.07;;;23.90;72.00;;;;;;5058206;28;20038;-78
2022/05/01 15:10:48;;;;;;;10.50;9.48;;;25.90;65.20;;;;;;5060737;28;20409;-79
2022/05/01 15:13:15;;;;;;;11.30;9.30;;;25.20;62.00;;;;;;5063135;28;20597;-78
2022/05/01 15:16:03;;;;;;;9.20;8.30;;;26.10;63.30;;;;;;5074400;28;20022;-80
2022/05/01 15:18:56;;;;;;;14.15;8.50;;;27.20;70.40;;;;;;5075533;28;20029;-78
2022/05/01 15:21:29;;;;;;;9.98;8.75;;;26.90;61.90;;;;;;5076871;28;20026;-78
2022/05/01 15:24:04;;;;;;;11.13;9.40;;;27.60;60.00;;;;;;5062181;28;20037;-79
2022/05/01 15:26:33;;;;;;;10.43;9.38;;;25.70;59.90;;;;;;5058967;28;20120;-78
2022/05/01 15:29:01;;;;;;;10.00;9.00;;;24.80;65.20;;;;;;5058760;28;20045;-79
2022/05/01 15:31:32;;;;;;;10.20;8.90;;;25.20;65.50;;;;;;5061513;28;20917;-80
2022/05/01 15:34:06;;;;;;;10.00;9.00;;;26.10;64.40;;;;;;5062046;28;20033;-80
2022/05/01 15:36:50;;;;;;;9.40;8.45;;;27.50;61.40;;;;;;5058037;28;20071;-79
2022/05/01 15:39:25;;;;;;;9.52;8.52;;;28.10;59.70;;;;;;5061745;28;20034;-78
2022/05/01 15:42:00;;;;;;;9.68;8.48;;;28.50;55.30;;;;;;5062768;28;20030;-79
2022/05/01 15:44:29;;;;;;;9.80;8.80;;;26.40;60.10;;;;;;5057449;28;20053;-80
2022/05/01 15:46:55;;;;;;;10.15;9.15;;;26.50;61.00;;;;;;5059675;28;20037;-80
2022/05/01 15:55:00;;;;;;;8.82;7.93;;;25.80;61.40;;;;;;5061761;28;20096;-80
2022/05/01 15:57:28;;;;;;;8.18;7.40;;;26.10;59.00;;;;;;5061128;28;20033;-81
2022/05/01 15:59:54;;;;;;;11.32;7.32;;;27.20;57.30;;;;;;5059617;28;20109;-83
2022/05/01 16:02:21;;;;;;;9.13;7.95;;;28.70;57.80;;;;;;5056137;28;20140;-79
2022/05/01 16:04:48;;;;;;;9.35;8.45;;;28.90;54.60;;;;;;5059659;28;20095;-79
2022/05/01 16:07:38;;;;;;;8.20;7.43;;;29.00;53.20;;;;;;5061306;28;20482;-79
2022/05/01 16:10:38;;;;;;;9.57;8.57;;;27.30;57.40;;;;;;5060981;28;20052;-78
2022/05/01 16:13:27;;;;;;;8.73;7.82;;;25.90;59.60;;;;;;5059426;28;20029;-80
2022/05/01 16:16:17;;;;;;;10.10;9.10;;;25.70;60.20;;;;;;5071147;22;20088;-84
2022/05/01 16:19:01;;;;;;;9.48;8.02;;;26.50;59.20;;;;;;5055199;28;20597;-89
2022/05/01 16:21:35;;;;;;;11.48;7.55;;;26.40;60.30;;;;;;5054584;28;20033;-86
2022/05/01 16:24:17;;;;;;;8.80;7.68;;;27.10;60.60;;;;;;5053558;28;20092;-85
2022/05/01 16:26:44;;;;;;;9.60;7.72;;;28.00;54.60;;;;;;5074266;28;20132;-87
2022/05/01 16:29:12;;;;;;;8.50;7.60;;;28.10;56.80;;;;;;5076701;28;20035;-86
2022/05/01 16:32:22;;;;;;;8.68;7.88;;;27.90;54.00;;;;;;5074722;28;20029;-84
2022/05/01 16:34:56;;;;;;;8.65;7.50;;;28.80;58.10;;;;;;5060115;28;20148;-87
2022/05/01 16:37:32;;;;;;;9.68;7.80;;;29.50;53.60;;;;;;5074948;28;20032;-85
2022/05/01 16:39:58;;;;;;;7.68;6.97;;;28.30;56.80;;;;;;5075529;28;20124;-86
2022/05/01 16:42:25;;;;;;;8.05;7.25;;;28.30;53.80;;;;;;5074112;28;20040;-85
2022/05/01 16:44:51;;;;;;;8.02;7.22;;;29.40;56.50;;;;;;5074364;28;20556;-83
2022/05/01 16:47:18;;;;;;;9.38;7.50;;;28.50;53.80;;;;;;5075422;28;20063;-86
2022/05/01 16:49:45;;;;;;;9.93;8.00;;;26.50;55.90;;;;;;5075641;28;20099;-85
2022/05/01 16:52:12;;;;;;;8.90;8.00;;;25.00;59.90;;;;;;5075387;28;20174;-84
2022/05/01 16:54:39;;;;;;;8.55;7.63;;;23.90;61.10;;;;;;5075589;28;20463;-83
2022/05/01 16:57:09;;;;;;;8.07;7.28;;;22.80;65.00;;;;;;5076269;28;20033;-83
2022/05/01 16:59:36;;;;;;;7.55;6.85;;;22.00;68.50;;;;;;5074275;28;20112;-87
2022/05/01 17:02:24;;;;;;;8.45;5.70;;;21.30;69.70;;;;;;5074103;28;20037;-85
2022/05/01 17:05:12;;;;;;;6.40;5.45;;;20.50;76.40;;;;;;5073474;28;20037;-84
2022/05/01 17:08:02;;;;;;;6.93;5.70;;;19.60;82.70;;;;;;5074301;28;20476;-85
2022/05/01 17:10:46;;;;;;;6.20;5.60;;;18.70;87.80;;;;;;5075919;28;20068;-84
2022/05/01 17:13:58;;;;;;;8.00;6.05;;;18.30;90.70;;;;;;5078848;28;20033;-86
2022/05/01 17:16:53;;;;;;;8.00;5.78;;;17.60;91.70;;;;;;5079402;28;20029;-84
2022/05/01 17:19:23;;;;;;;8.20;5.45;;;16.90;92.90;;;;;;5083041;28;20044;-83
2022/05/01 17:22:07;;;;;;;6.32;5.38;;;16.60;94.70;;;;;;5083285;28;20502;-83
2022/05/01 17:25:09;;;;;;;5.75;5.15;;;16.40;95.40;;;;;;5082671;28;20155;-83
2022/05/01 17:27:53;;;;;;;6.30;5.45;;;16.30;97.80;;;;;;5072773;28;20044;-83
2022/05/01 17:30:21;;;;;;;5.75;5.15;;;16.10;97.20;;;;;;5083228;28;20048;-83
2022/05/01 17:33:10;;;;;;;6.25;5.63;;;16.00;98.00;;;;;;5082191;28;20029;-84